Time;durP1;ratioP1;P1;durP2;ratioP2;P2;SDS_P1;SDS_P2;PMS_P1;PMS_P2;Temp;Humidity;BMP_temperature;BMP_pressure;BME280_temperature;BME280_humidity;BME280_pressure;Samples;Min_cycle;Max_cycle;Signal;HPM_P1;HPM_P2
2024/02/04 00:02:16;;;;;;;2.08;1.90;;;10.00;99.90;;;;;;5080143;28;20198;-77
2024/02/04 00:04:43;;;;;;;2.10;2.00;;;10.10;99.90;;;;;;5084991;28;20260;-76
2024/02/04 00:07:10;;;;;;;1.90;1.80;;;10.20;99.90;;;;;;5082891;28;21031;-78
2024/02/04 00:09:37;;;;;;;2.00;1.90;;;10.20;99.90;;;;;;5083081;28;20213;-77
2024/02/04 00:12:06;;;;;;;2.10;2.00;;;10.20;99.90;;;;;;5082425;28;20221;-76
2024/02/04 00:14:34;;;;;;;1.90;1.80;;;10.10;99.90;;;;;;5080156;28;20212;-76
2024/02/04 00:17:01;;;;;;;2.00;1.90;;;10.10;99.90;;;;;;5079641;28;20263;-75
2024/02/04 00:19:28;;;;;;;2.45;1.77;;;10.00;99.90;;;;;;5080206;28;21746;-78
2024/02/04 00:21:55;;;;;;;1.65;1.55;;;9.90;99.90;;;;;;5081460;28;20250;-75
2024/02/04 00:24:22;;;;;;;1.90;1.80;;;9.90;99.90;;;;;;5084492;28;20230;-77
2024/02/04 00:26:49;;;;;;;1.92;1.70;;;9.90;99.90;;;;;;5082042;28;20241;-75
2024/02/04 00:29:16;;;;;;;2.17;2.08;;;9.80;99.90;;;;;;5082234;28;20718;-76
2024/02/04 00:31:44;;;;;;;1.92;1.83;;;9.90;99.90;;;;;;5080585;28;20251;-75
2024/02/04 00:34:11;;;;;;;2.00;1.90;;;9.90;99.90;;;;;;5083019;28;20267;-77
2024/02/04 00:36:38;;;;;;;2.20;2.10;;;9.90;99.90;;;;;;5080007;28;20222;-75
2024/02/04 00:39:07;;;;;;;1.92;1.83;;;9.90;99.90;;;;;;5081409;28;20252;-75
2024/02/04 00:41:34;;;;;;;1.83;1.73;;;9.80;99.90;;;;;;5081039;28;20221;-76
2024/02/04 00:44:01;;;;;;;2.10;2.00;;;9.80;99.90;;;;;;5080745;28;20198;-77
2024/02/04 00:46:28;;;;;;;1.73;1.63;;;9.70;99.90;;;;;;5082731;28;20233;-76
2024/02/04 00:48:56;;;;;;;1.73;1.63;;;9.70;99.90;;;;;;5080760;28;20750;-77
2024/02/04 00:51:24;;;;;;;2.08;1.98;;;9.70;99.90;;;;;;5081939;28;20889;-75
2024/02/04 00:53:52;;;;;;;1.95;1.85;;;9.70;99.90;;;;;;5081925;28;20234;-78
2024/02/04 00:56:19;;;;;;;2.03;1.92;;;9.70;99.90;;;;;;5090738;28;20249;-75
2024/02/04 00:58:46;;;;;;;1.88;1.77;;;9.70;99.90;;;;;;5095614;28;20229;-75
2024/02/04 01:01:13;;;;;;;1.88;1.77;;;9.80;99.90;;;;;;5091282;28;20699;-75
2024/02/04 01:03:40;;;;;;;2.05;1.80;;;9.70;99.90;;;;;;5080533;28;20223;-76
2024/02/04 01:06:09;;;;;;;1.85;1.75;;;9.70;99.90;;;;;;5082742;28;20307;-75
2024/02/04 01:08:37;;;;;;;1.90;1.80;;;9.70;99.90;;;;;;5084393;28;20221;-76
2024/02/04 01:11:04;;;;;;;1.70;1.60;;;9.60;99.90;;;;;;5082860;28;20815;-76
2024/02/04 01:13:31;;;;;;;1.85;1.75;;;9.60;99.90;;;;;;5077240;28;20640;-76
2024/02/04 01:15:58;;;;;;;1.73;1.63;;;9.60;99.90;;;;;;5083205;28;20912;-76
2024/02/04 01:18:25;;;;;;;1.73;1.70;;;9.50;99.90;;;;;;5081160;28;20398;-74
2024/02/04 01:20:52;;;;;;;2.00;1.90;;;9.40;99.90;;;;;;5082083;28;20224;-77
2024/02/04 01:23:21;;;;;;;1.70;1.60;;;9.40;99.90;;;;;;5083147;28;20202;-75
2024/02/04 01:25:47;;;;;;;1.85;1.75;;;9.40;99.90;;;;;;5097172;28;20220;-76
2024/02/04 01:28:14;;;;;;;2.17;2.08;;;9.30;99.90;;;;;;5085582;28;20614;-77
2024/02/04 01:30:41;;;;;;;1.58;1.48;;;9.30;99.90;;;;;;5077626;28;20313;-76
2024/02/04 01:33:08;;;;;;;2.00;1.90;;;9.30;99.90;;;;;;5079908;28;20245;-77
2024/02/04 01:35:35;;;;;;;1.90;1.80;;;9.30;99.90;;;;;;5086123;28;20235;-76
2024/02/04 01:38:02;;;;;;;1.90;1.80;;;9.30;99.90;;;;;;5077337;28;20202;-77
2024/02/04 01:40:30;;;;;;;1.88;1.77;;;9.20;99.90;;;;;;5077865;28;20230;-77
2024/02/04 01:42:57;;;;;;;2.08;1.98;;;9.20;99.90;;;;;;5078844;28;20229;-77
2024/02/04 01:45:25;;;;;;;1.90;1.80;;;9.20;99.90;;;;;;5079173;28;20334;-76
2024/02/04 01:47:52;;;;;;;2.00;1.90;;;9.10;99.90;;;;;;5086215;28;20201;-77
2024/02/04 01:50:20;;;;;;;2.33;2.20;;;9.10;99.90;;;;;;5081979;28;20237;-77
2024/02/04 01:52:48;;;;;;;1.77;1.67;;;9.10;99.90;;;;;;5084655;28;20236;-77
2024/02/04 01:55:15;;;;;;;1.77;1.70;;;9.10;99.90;;;;;;5079836;28;20222;-77
2024/02/04 01:57:43;;;;;;;2.08;1.98;;;9.10;99.90;;;;;;5084077;28;20844;-77
2024/02/04 02:00:12;;;;;;;1.90;1.80;;;9.10;99.90;;;;;;5084852;28;20245;-77
2024/02/04 02:02:41;;;;;;;1.75;1.65;;;9.00;99.90;;;;;;5077858;28;20208;-77
2024/02/04 02:05:08;;;;;;;1.98;1.88;;;9.00;99.90;;;;;;5080951;28;20270;-77
2024/02/04 02:07:35;;;;;;;2.00;1.90;;;9.10;99.90;;;;;;5080489;28;20288;-77
2024/02/04 02:10:05;;;;;;;2.10;2.00;;;9.20;99.90;;;;;;5073019;28;20267;-77
2024/02/04 02:12:36;;;;;;;2.10;2.00;;;9.30;99.90;;;;;;5081938;28;20663;-76
2024/02/04 02:15:12;;;;;;;2.03;1.92;;;9.30;99.90;;;;;;5081023;28;20593;-75
2024/02/04 02:17:49;;;;;;;2.00;1.90;;;9.20;99.90;;;;;;5079694;28;20201;-75
2024/02/04 02:20:22;;;;;;;1.83;1.73;;;9.20;99.90;;;;;;5077601;28;20596;-76
2024/02/04 02:22:51;;;;;;;1.85;1.75;;;9.10;99.90;;;;;;5084892;28;20255;-78
2024/02/04 02:25:21;;;;;;;1.60;1.50;;;9.00;99.90;;;;;;5079548;28;20381;-76
2024/02/04 02:27:50;;;;;;;2.20;2.10;;;9.00;99.90;;;;;;5081746;28;20204;-78
2024/02/04 02:30:18;;;;;;;2.22;2.03;;;8.90;99.90;;;;;;5082324;28;20339;-76
2024/02/04 02:32:46;;;;;;;2.20;2.10;;;8.90;99.90;;;;;;5081663;28;20719;-75
2024/02/04 02:35:14;;;;;;;2.00;1.83;;;8.80;99.90;;;;;;5079935;28;20225;-78
2024/02/04 02:37:46;;;;;;;2.75;1.90;;;8.70;99.90;;;;;;5080576;28;20507;-78
2024/02/04 02:40:19;;;;;;;1.98;1.88;;;8.60;99.90;;;;;;5081281;28;20225;-75
2024/02/04 02:42:49;;;;;;;1.88;1.77;;;8.60;99.90;;;;;;5081153;28;20242;-77
2024/02/04 02:45:17;;;;;;;2.25;2.15;;;8.60;99.90;;;;;;5080341;28;20505;-76
2024/02/04 02:47:45;;;;;;;2.33;2.22;;;8.60;99.90;;;;;;5079854;28;20706;-77
2024/02/04 02:50:13;;;;;;;2.00;1.90;;;8.60;99.90;;;;;;5080002;28;20315;-76
2024/02/04 02:52:40;;;;;;;2.10;2.00;;;8.60;99.90;;;;;;5081037;28;20225;-78
2024/02/04 02:55:08;;;;;;;1.75;1.73;;;8.60;99.90;;;;;;5078969;28;20263;-75
2024/02/04 02:57:35;;;;;;;1.67;1.60;;;8.50;99.90;;;;;;5080410;28;20198;-76
2024/02/04 03:00:05;;;;;;;2.10;2.00;;;8.60;99.90;;;;;;5082340;28;20845;-77
2024/02/04 03:02:32;;;;;;;2.00;1.90;;;8.50;99.90;;;;;;5085019;28;20197;-74
2024/02/04 03:05:00;;;;;;;2.17;2.08;;;8.50;99.90;;;;;;5084032;28;20300;-76
2024/02/04 03:07:27;;;;;;;1.90;1.80;;;8.50;99.90;;;;;;5080465;28;20206;-75
2024/02/04 03:09:54;;;;;;;1.77;1.70;;;8.50;99.90;;;;;;5082861;28;20225;-76
2024/02/04 03:12:21;;;;;;;2.08;1.98;;;8.50;99.90;;;;;;5081981;28;20300;-76
2024/02/04 03:14:48;;;;;;;1.88;1.80;;;8.50;99.90;;;;;;5086634;28;20205;-75
2024/02/04 03:17:20;;;;;;;1.90;1.80;;;8.40;99.90;;;;;;5083874;28;20198;-75
2024/02/04 03:19:47;;;;;;;2.03;1.92;;;8.40;99.90;;;;;;5078969;28;20231;-74
2024/02/04 03:22:14;;;;;;;2.05;1.95;;;8.40;99.90;;;;;;5084633;28;21110;-75
2024/02/04 03:24:41;;;;;;;2.15;2.05;;;8.50;99.90;;;;;;5093068;28;20288;-76
2024/02/04 03:27:08;;;;;;;1.95;1.85;;;8.50;99.90;;;;;;5100858;28;20222;-76
2024/02/04 03:29:35;;;;;;;2.00;1.90;;;8.40;99.90;;;;;;5090484;28;20278;-76
2024/02/04 03:32:03;;;;;;;2.38;2.28;;;8.40;99.90;;;;;;5085857;28;20225;-77
2024/02/04 03:34:31;;;;;;;2.15;2.05;;;8.30;99.90;;;;;;5089044;28;20225;-75
2024/02/04 03:36:58;;;;;;;1.92;1.83;;;8.20;99.90;;;;;;5086620;28;20225;-76
2024/02/04 03:39:26;;;;;;;2.00;1.90;;;8.20;99.90;;;;;;5086637;28;20279;-77
2024/02/04 03:41:53;;;;;;;1.80;1.73;;;8.20;99.90;;;;;;5093366;28;20213;-74
2024/02/04 03:44:20;;;;;;;2.10;2.00;;;8.20;99.90;;;;;;5093625;28;20223;-78
2024/02/04 03:46:50;;;;;;;2.35;2.25;;;8.30;99.90;;;;;;5087010;28;20222;-75
2024/02/04 03:49:16;;;;;;;2.15;2.05;;;8.30;99.90;;;;;;5085959;28;20222;-77
2024/02/04 03:51:45;;;;;;;2.05;1.95;;;8.30;99.90;;;;;;5083742;28;20255;-76
2024/02/04 03:54:12;;;;;;;1.65;1.60;;;8.30;99.90;;;;;;5086213;28;20265;-75
2024/02/04 03:56:39;;;;;;;2.10;2.00;;;8.20;99.90;;;;;;5083441;28;20241;-77
2024/02/04 03:59:08;;;;;;;2.10;2.00;;;8.20;99.90;;;;;;5087977;28;20654;-76
2024/02/04 04:01:36;;;;;;;2.05;1.95;;;8.20;99.90;;;;;;5082978;28;20229;-75
2024/02/04 04:04:03;;;;;;;2.05;1.95;;;8.10;99.90;;;;;;5088461;28;20205;-75
2024/02/04 04:06:30;;;;;;;1.80;1.70;;;8.10;99.90;;;;;;5085999;28;20294;-77
2024/02/04 04:08:59;;;;;;;2.10;2.00;;;8.10;99.90;;;;;;5086525;28;20217;-74
2024/02/04 04:11:26;;;;;;;1.80;1.70;;;8.10;99.90;;;;;;5083919;28;20216;-73
2024/02/04 04:13:53;;;;;;;2.00;1.90;;;8.10;99.90;;;;;;5087979;28;20217;-77
2024/02/04 04:16:22;;;;;;;1.90;1.80;;;8.10;99.90;;;;;;5087596;28;20278;-75
2024/02/04 04:18:49;;;;;;;1.98;1.88;;;8.10;99.90;;;;;;5085446;28;20213;-75
2024/02/04 04:21:16;;;;;;;1.92;1.83;;;8.00;99.90;;;;;;5084836;28;20205;-76
2024/02/04 04:23:43;;;;;;;1.88;1.77;;;8.10;99.90;;;;;;5088630;28;20229;-77
2024/02/04 04:26:11;;;;;;;1.92;1.90;;;8.00;99.90;;;;;;5083988;28;20580;-76
2024/02/04 04:28:38;;;;;;;2.15;2.05;;;8.00;99.90;;;;;;5088342;28;20217;-76
2024/02/04 04:31:05;;;;;;;1.80;1.70;;;8.00;99.90;;;;;;5085388;28;20283;-76
2024/02/04 04:33:33;;;;;;;1.92;1.83;;;8.00;99.90;;;;;;5086185;28;20423;-76
2024/02/04 04:36:00;;;;;;;2.17;2.08;;;8.00;99.90;;;;;;5085798;28;20265;-76
2024/02/04 04:38:26;;;;;;;1.95;1.85;;;8.00;99.90;;;;;;5089101;28;20202;-76
2024/02/04 04:40:54;;;;;;;2.08;1.98;;;8.10;99.90;;;;;;5082584;28;20228;-76
2024/02/04 04:43:22;;;;;;;1.88;1.77;;;8.10;99.90;;;;;;5087318;28;20255;-77
2024/02/04 04:45:49;;;;;;;2.08;1.98;;;8.10;99.90;;;;;;5085248;28;20228;-75
2024/02/04 04:48:16;;;;;;;2.38;2.28;;;8.00;99.90;;;;;;5087008;28;20295;-77
2024/02/04 04:50:43;;;;;;;2.17;2.08;;;8.00;99.90;;;;;;5083363;28;20284;-76
2024/02/04 04:53:10;;;;;;;1.67;1.58;;;8.00;99.90;;;;;;5082904;28;20636;-76
2024/02/04 04:55:37;;;;;;;2.10;2.00;;;8.00;99.90;;;;;;5080670;28;20632;-76
2024/02/04 04:58:04;;;;;;;2.20;2.10;;;8.00;99.90;;;;;;5084220;28;20230;-76
2024/02/04 05:00:32;;;;;;;2.10;1.90;;;8.00;99.90;;;;;;5087481;28;20654;-76
2024/02/04 05:02:59;;;;;;;2.13;2.03;;;8.00;99.90;;;;;;5083747;28;20283;-76
2024/02/04 05:05:26;;;;;;;1.88;1.77;;;7.90;99.90;;;;;;5079875;28;20244;-77
2024/02/04 05:07:53;;;;;;;2.10;2.00;;;7.90;99.90;;;;;;5079150;28;20206;-77
2024/02/04 05:10:20;;;;;;;2.25;2.13;;;7.90;99.90;;;;;;5082003;28;20221;-77
2024/02/04 05:12:47;;;;;;;1.85;1.80;;;7.80;99.90;;;;;;5080176;28;20902;-76
2024/02/04 05:15:14;;;;;;;1.80;1.70;;;7.80;99.90;;;;;;5081862;28;20310;-76
2024/02/04 05:17:42;;;;;;;1.83;1.73;;;7.80;99.90;;;;;;5080447;28;20596;-76
2024/02/04 05:20:10;;;;;;;1.80;1.70;;;7.70;99.90;;;;;;5079436;28;20718;-77
2024/02/04 05:22:37;;;;;;;2.10;2.00;;;7.70;99.90;;;;;;5084686;28;20832;-76
2024/02/04 05:25:04;;;;;;;2.13;2.03;;;7.70;99.90;;;;;;5095589;28;20201;-76
2024/02/04 05:27:31;;;;;;;2.40;2.30;;;7.60;99.90;;;;;;5089139;28;20247;-76
2024/02/04 05:29:58;;;;;;;2.63;1.90;;;7.60;99.90;;;;;;5082326;28;20225;-76
2024/02/04 05:32:25;;;;;;;2.40;2.30;;;7.70;99.90;;;;;;5081622;28;20221;-75
2024/02/04 05:34:53;;;;;;;2.17;2.08;;;7.70;99.90;;;;;;5084913;28;20701;-77
2024/02/04 05:37:21;;;;;;;1.73;1.65;;;7.60;99.90;;;;;;5079774;28;20825;-76
2024/02/04 05:39:48;;;;;;;2.03;1.92;;;7.70;99.90;;;;;;5080753;28;20230;-77
2024/02/04 05:42:15;;;;;;;2.00;1.90;;;7.70;99.90;;;;;;5083050;28;20201;-77
2024/02/04 05:44:42;;;;;;;1.52;1.52;;;7.70;99.90;;;;;;5080289;28;20329;-77
2024/02/04 05:47:09;;;;;;;1.92;1.83;;;7.70;99.90;;;;;;5080912;28;20246;-76
2024/02/04 05:49:36;;;;;;;2.13;2.03;;;7.60;99.90;;;;;;5082164;28;20213;-77
2024/02/04 05:52:05;;;;;;;2.35;2.25;;;7.60;99.90;;;;;;5080086;28;20221;-76
2024/02/04 05:54:32;;;;;;;2.20;2.10;;;7.60;99.90;;;;;;5086050;28;20752;-76
2024/02/04 05:56:59;;;;;;;2.20;2.10;;;7.60;99.90;;;;;;5078269;28;20245;-76
2024/02/04 05:59:25;;;;;;;1.88;1.85;;;7.50;99.90;;;;;;5085136;28;20217;-78
2024/02/04 06:01:55;;;;;;;2.22;2.13;;;7.50;99.90;;;;;;5083301;28;20299;-77
2024/02/04 06:04:22;;;;;;;2.10;2.00;;;7.50;99.90;;;;;;5085411;28;20279;-77
2024/02/04 06:06:49;;;;;;;2.13;2.03;;;7.50;99.90;;;;;;5076367;28;20822;-77
2024/02/04 06:09:17;;;;;;;2.03;1.92;;;7.50;99.90;;;;;;5082497;28;20657;-77
2024/02/04 06:11:46;;;;;;;2.25;2.15;;;7.50;99.90;;;;;;5076007;28;20645;-76
2024/02/04 06:14:13;;;;;;;2.15;2.05;;;7.50;99.90;;;;;;5082299;28;20759;-75
2024/02/04 06:16:40;;;;;;;2.28;2.17;;;7.50;99.90;;;;;;5081725;28;20240;-77
2024/02/04 06:19:08;;;;;;;2.13;2.03;;;7.50;99.90;;;;;;5080992;28;20229;-76
2024/02/04 06:21:35;;;;;;;2.30;2.20;;;7.50;99.90;;;;;;5088776;28;20228;-76
2024/02/04 06:24:02;;;;;;;2.13;2.03;;;7.50;99.90;;;;;;5097040;28;20198;-76
2024/02/04 06:26:31;;;;;;;2.38;2.28;;;7.60;99.90;;;;;;5090666;28;20305;-77
2024/02/04 06:28:57;;;;;;;2.00;1.90;;;7.50;99.90;;;;;;5083531;28;20437;-77
2024/02/04 06:31:24;;;;;;;2.33;2.13;;;7.50;99.90;;;;;;5078940;28;20802;-77
2024/02/04 06:33:51;;;;;;;1.90;1.80;;;7.60;99.90;;;;;;5079995;28;20245;-77
2024/02/04 06:36:18;;;;;;;2.13;2.03;;;7.60;99.90;;;;;;5081072;28;20228;-77
2024/02/04 06:38:45;;;;;;;2.20;2.10;;;7.60;99.90;;;;;;5082250;28;20221;-76
2024/02/04 06:41:12;;;;;;;2.28;2.17;;;7.60;99.90;;;;;;5080828;28;20290;-77
2024/02/04 06:43:40;;;;;;;2.13;2.03;;;7.50;99.90;;;;;;5081714;28;20221;-77
2024/02/04 06:46:07;;;;;;;2.17;2.08;;;7.50;99.90;;;;;;5078603;28;20289;-76
2024/02/04 06:48:34;;;;;;;2.10;2.00;;;7.50;99.90;;;;;;5081153;28;20213;-77
2024/02/04 06:51:01;;;;;;;2.30;2.20;;;7.60;99.90;;;;;;5080697;28;20252;-77
2024/02/04 06:53:28;;;;;;;2.22;2.13;;;7.50;99.90;;;;;;5084706;28;20213;-76
2024/02/04 06:55:55;;;;;;;2.40;2.30;;;7.60;99.90;;;;;;5079443;28;20305;-77
2024/02/04 06:58:22;;;;;;;2.10;2.00;;;7.60;99.90;;;;;;5078814;28;20255;-76
2024/02/04 07:00:51;;;;;;;2.10;2.00;;;7.60;99.90;;;;;;5079172;28;20320;-77
2024/02/04 07:03:18;;;;;;;2.20;2.10;;;7.60;99.90;;;;;;5084313;28;20323;-78
2024/02/04 07:05:46;;;;;;;2.20;2.10;;;7.70;99.90;;;;;;5085737;28;20249;-77
2024/02/04 07:08:14;;;;;;;2.17;2.08;;;7.70;99.90;;;;;;5080851;28;20292;-76
2024/02/04 07:10:41;;;;;;;2.60;2.50;;;7.70;99.90;;;;;;5085834;28;20220;-76
2024/02/04 07:13:08;;;;;;;2.15;2.05;;;7.80;99.90;;;;;;5081885;28;20283;-75
2024/02/04 07:15:35;;;;;;;2.15;2.05;;;7.90;99.90;;;;;;5085026;28;20221;-77
2024/02/04 07:18:03;;;;;;;2.22;2.13;;;8.00;99.90;;;;;;5078553;28;20964;-76
2024/02/04 07:20:30;;;;;;;1.83;1.73;;;8.00;99.90;;;;;;5079147;28;20248;-77
2024/02/04 07:22:57;;;;;;;1.92;1.83;;;8.10;99.90;;;;;;5094683;28;20198;-77
2024/02/04 07:25:24;;;;;;;2.28;2.17;;;8.10;99.90;;;;;;5096761;28;20229;-77
2024/02/04 07:27:51;;;;;;;2.33;2.22;;;8.10;99.90;;;;;;5085089;28;20780;-77
2024/02/04 07:30:18;;;;;;;1.52;1.52;;;8.20;99.90;;;;;;5082588;28;20224;-77
2024/02/04 07:32:45;;;;;;;1.85;1.75;;;8.20;99.90;;;;;;5082878;28;20202;-76
2024/02/04 07:35:13;;;;;;;2.00;1.90;;;8.20;99.90;;;;;;5085270;28;20221;-78
2024/02/04 07:37:40;;;;;;;2.28;2.17;;;8.30;99.90;;;;;;5082741;28;20217;-78
2024/02/04 07:40:08;;;;;;;1.95;1.85;;;8.30;99.90;;;;;;5086874;28;20229;-77
2024/02/04 07:42:35;;;;;;;2.47;2.22;;;8.50;99.90;;;;;;5081281;28;20302;-76
2024/02/04 07:45:08;;;;;;;2.13;2.03;;;8.70;99.90;;;;;;5082152;28;20229;-76
2024/02/04 07:47:35;;;;;;;2.38;2.28;;;8.90;99.90;;;;;;5082095;28;20194;-76
2024/02/04 07:50:02;;;;;;;2.15;2.05;;;9.20;99.90;;;;;;5085356;28;20217;-76
2024/02/04 07:52:31;;;;;;;2.58;2.47;;;9.60;99.90;;;;;;5083494;28;20206;-78
2024/02/04 07:54:58;;;;;;;2.50;2.40;;;10.10;99.90;;;;;;5082132;28;20222;-77
2024/02/04 07:57:24;;;;;;;2.30;2.20;;;10.60;99.90;;;;;;5080614;28;20275;-76
2024/02/04 07:59:52;;;;;;;2.15;2.05;;;11.30;99.90;;;;;;5079309;28;20716;-76
2024/02/04 08:02:19;;;;;;;2.60;2.40;;;12.20;99.90;;;;;;5084254;28;20284;-77
2024/02/04 08:04:46;;;;;;;2.50;2.30;;;13.10;99.90;;;;;;5079733;28;20209;-76
2024/02/04 08:07:13;;;;;;;2.30;2.20;;;14.00;99.90;;;;;;5077715;28;20234;-75
2024/02/04 08:09:41;;;;;;;2.97;2.78;;;14.80;99.90;;;;;;5078746;28;20291;-75
2024/02/04 08:12:09;;;;;;;3.88;3.00;;;15.60;99.90;;;;;;5078076;28;20228;-77
2024/02/04 08:14:36;;;;;;;3.10;2.80;;;16.10;99.90;;;;;;5078987;28;20241;-75
2024/02/04 08:17:03;;;;;;;2.85;2.63;;;16.50;99.90;;;;;;5076378;28;20341;-75
2024/02/04 08:19:30;;;;;;;3.00;2.80;;;16.70;99.90;;;;;;5077701;28;22602;-77
2024/02/04 08:21:58;;;;;;;2.70;2.50;;;16.70;99.90;;;;;;5073876;28;20221;-79
2024/02/04 08:24:25;;;;;;;2.88;2.67;;;16.70;99.90;;;;;;5081341;28;20288;-74
2024/02/04 08:26:54;;;;;;;2.33;2.20;;;16.60;99.90;;;;;;5074128;28;20313;-75
2024/02/04 08:29:21;;;;;;;2.17;2.03;;;16.70;99.90;;;;;;5081835;28;20296;-77
2024/02/04 08:31:48;;;;;;;2.70;2.50;;;16.90;99.90;;;;;;5074873;28;20731;-78
2024/02/04 08:34:15;;;;;;;2.22;2.00;;;16.90;99.90;;;;;;5078916;28;20279;-78
2024/02/04 08:36:41;;;;;;;2.50;2.30;;;17.00;99.90;;;;;;5077761;28;20245;-77
2024/02/04 08:39:09;;;;;;;2.08;1.98;;;17.20;99.90;;;;;;5076192;28;20256;-78
2024/02/04 08:41:36;;;;;;;2.40;1.77;;;17.40;99.90;;;;;;5081587;28;20217;-77
2024/02/04 08:44:04;;;;;;;1.98;1.88;;;17.50;99.90;;;;;;5080894;28;20197;-77
2024/02/04 08:46:31;;;;;;;4.50;2.17;;;17.50;99.90;;;;;;5078348;28;20777;-78
2024/02/04 08:48:58;;;;;;;1.90;1.80;;;17.60;99.90;;;;;;5077436;28;20253;-76
2024/02/04 08:51:25;;;;;;;1.77;1.67;;;17.90;99.90;;;;;;5081157;28;20742;-77
2024/02/04 08:53:52;;;;;;;1.98;1.88;;;18.30;99.90;;;;;;5079995;28;20782;-77
2024/02/04 08:56:19;;;;;;;1.90;1.80;;;18.70;99.20;;;;;;5070795;28;20245;-77
2024/02/04 08:58:47;;;;;;;1.88;1.77;;;19.00;98.70;;;;;;5082408;28;20602;-78
2024/02/04 09:01:15;;;;;;;2.95;1.75;;;19.00;99.30;;;;;;5081320;28;20310;-76
2024/02/04 09:03:42;;;;;;;1.70;1.60;;;19.10;99.90;;;;;;5080920;28;20252;-78
2024/02/04 09:06:09;;;;;;;4.55;1.90;;;19.00;98.90;;;;;;5082013;28;21030;-78
2024/02/04 09:08:36;;;;;;;2.45;1.90;;;18.90;98.70;;;;;;5083330;28;20259;-78
2024/02/04 09:11:03;;;;;;;2.38;1.80;;;19.00;98.20;;;;;;5084449;28;20229;-77
2024/02/04 09:13:30;;;;;;;3.08;1.85;;;19.00;97.00;;;;;;5085222;28;20620;-79
2024/02/04 09:15:57;;;;;;;2.40;2.20;;;19.00;96.40;;;;;;5084447;28;20253;-77
2024/02/04 09:18:25;;;;;;;3.00;2.70;;;19.00;96.20;;;;;;5081924;28;20709;-77
2024/02/04 09:20:52;;;;;;;2.75;2.13;;;18.50;96.40;;;;;;5085961;28;20598;-75
2024/02/04 09:23:19;;;;;;;2.58;2.38;;;18.40;95.70;;;;;;5088220;28;20198;-78
2024/02/04 09:25:46;;;;;;;2.83;1.92;;;18.10;95.60;;;;;;5090902;28;20233;-77
2024/02/04 09:28:13;;;;;;;2.72;2.53;;;17.90;95.10;;;;;;5106043;28;20201;-77
2024/02/04 09:30:39;;;;;;;3.38;2.58;;;18.00;96.00;;;;;;5085191;28;20727;-78
2024/02/04 09:33:08;;;;;;;3.40;3.10;;;17.90;96.40;;;;;;5087160;28;20201;-77
2024/02/04 09:35:36;;;;;;;2.97;2.65;;;18.00;96.80;;;;;;5086260;28;20312;-78
2024/02/04 09:38:03;;;;;;;2.80;2.60;;;18.40;96.40;;;;;;5082409;28;20225;-77
2024/02/04 09:40:31;;;;;;;3.25;2.95;;;19.30;93.90;;;;;;5082362;28;20218;-76
2024/02/04 09:42:59;;;;;;;3.45;3.03;;;20.10;93.00;;;;;;5083614;28;20285;-77
2024/02/04 09:45:27;;;;;;;3.58;2.80;;;20.80;91.60;;;;;;5083391;28;20225;-75
2024/02/04 09:47:55;;;;;;;2.50;2.30;;;21.10;89.10;;;;;;5075058;28;20248;-76
2024/02/04 09:50:22;;;;;;;2.35;2.25;;;21.20;88.00;;;;;;5078548;28;20257;-77
2024/02/04 09:52:51;;;;;;;2.20;2.00;;;20.30;86.70;;;;;;5080085;28;20338;-77
2024/02/04 09:55:21;;;;;;;2.72;2.47;;;19.60;88.10;;;;;;5079260;28;20221;-77
2024/02/04 09:57:48;;;;;;;2.65;2.45;;;19.10;90.90;;;;;;5081339;28;21099;-77
2024/02/04 10:00:19;;;;;;;2.55;2.10;;;18.20;91.60;;;;;;5078493;28;20253;-76
2024/02/04 10:02:48;;;;;;;2.55;2.30;;;18.00;92.60;;;;;;5080229;28;20209;-77
2024/02/04 10:05:15;;;;;;;2.40;2.20;;;18.10;92.60;;;;;;5084007;28;20225;-77
2024/02/04 10:07:42;;;;;;;2.88;2.40;;;18.20;92.70;;;;;;5085218;28;20202;-78
2024/02/04 10:10:12;;;;;;;2.55;2.35;;;18.00;92.40;;;;;;5087713;28;20285;-77
2024/02/04 10:12:40;;;;;;;3.63;2.38;;;17.80;92.70;;;;;;5083441;28;20224;-78
2024/02/04 10:15:08;;;;;;;2.53;2.33;;;17.70;92.70;;;;;;5081719;28;20231;-77
2024/02/04 10:17:36;;;;;;;3.13;2.30;;;17.80;93.00;;;;;;5081118;28;20233;-79
2024/02/04 10:20:03;;;;;;;2.50;2.30;;;17.80;92.90;;;;;;5078479;28;20750;-77
2024/02/04 10:22:31;;;;;;;3.15;2.85;;;17.90;93.20;;;;;;5082433;28;20288;-76
2024/02/04 10:25:07;;;;;;;2.70;2.50;;;18.10;93.00;;;;;;5076537;28;20206;-77
2024/02/04 10:27:36;;;;;;;3.75;2.53;;;18.10;92.90;;;;;;5076776;28;20292;-78
2024/02/04 10:30:03;;;;;;;2.00;1.90;;;17.80;92.20;;;;;;5075706;28;20699;-77
2024/02/04 10:32:30;;;;;;;2.22;2.03;;;17.50;92.20;;;;;;5080945;28;20336;-75
2024/02/04 10:34:59;;;;;;;2.00;1.77;;;17.50;92.10;;;;;;5077496;28;20316;-76
2024/02/04 10:37:26;;;;;;;2.17;2.08;;;17.90;92.20;;;;;;5078542;28;20753;-77
2024/02/04 10:39:53;;;;;;;3.83;2.38;;;18.10;92.30;;;;;;5074707;28;20970;-78
2024/02/04 10:42:24;;;;;;;3.40;3.10;;;18.00;92.40;;;;;;5078585;28;20279;-78
2024/02/04 10:44:54;;;;;;;3.83;3.53;;;17.60;93.10;;;;;;5084241;28;20297;-77
2024/02/04 10:47:23;;;;;;;4.72;4.18;;;17.60;94.60;;;;;;5085149;28;20369;-76
2024/02/04 10:49:53;;;;;;;4.75;3.75;;;17.90;94.80;;;;;;5075060;28;20280;-77
2024/02/04 10:52:21;;;;;;;4.35;3.88;;;17.90;95.20;;;;;;5084140;28;20201;-75
2024/02/04 10:54:49;;;;;;;4.20;3.80;;;17.80;95.70;;;;;;5082860;28;20241;-76
2024/02/04 10:57:21;;;;;;;4.15;3.72;;;17.70;95.70;;;;;;5085575;28;20210;-76
2024/02/04 10:59:48;;;;;;;3.95;3.65;;;17.70;95.60;;;;;;5079040;28;20317;-76
2024/02/04 11:02:18;;;;;;;4.15;3.75;;;17.70;95.50;;;;;;5079827;28;20200;-76
2024/02/04 11:04:46;;;;;;;6.82;3.72;;;17.90;95.70;;;;;;5079570;28;20195;-76
2024/02/04 11:07:15;;;;;;;3.60;3.30;;;17.80;94.80;;;;;;5078309;28;20264;-76
2024/02/04 11:09:42;;;;;;;3.35;3.05;;;17.80;94.90;;;;;;5082847;28;20255;-77
2024/02/04 11:12:12;;;;;;;3.92;3.22;;;17.80;94.70;;;;;;5079383;28;21030;-76
2024/02/04 11:14:42;;;;;;;3.85;3.50;;;17.50;94.80;;;;;;5079440;28;20249;-76
2024/02/04 11:17:35;;;;;;;4.15;3.75;;;17.50;94.70;;;;;;5078995;28;20259;-76
2024/02/04 11:20:17;;;;;;;4.00;3.60;;;17.30;95.20;;;;;;5081931;28;20301;-77
2024/02/04 11:23:17;;;;;;;3.35;2.88;;;17.20;95.10;;;;;;5080376;28;20353;-75
2024/02/04 11:25:46;;;;;;;2.80;2.60;;;16.90;95.20;;;;;;5077312;28;20242;-77
2024/02/04 11:28:16;;;;;;;3.13;2.90;;;16.80;95.20;;;;;;5079323;28;20202;-76
2024/02/04 11:30:44;;;;;;;4.00;3.00;;;16.80;95.40;;;;;;5079700;28;21026;-76
2024/02/04 11:33:19;;;;;;;3.65;3.15;;;17.00;95.30;;;;;;5076110;28;20198;-76
2024/02/04 11:35:46;;;;;;;4.53;3.17;;;16.90;94.90;;;;;;5076798;28;20256;-75
2024/02/04 11:38:17;;;;;;;3.38;2.83;;;17.00;95.30;;;;;;5096837;28;20198;-76
2024/02/04 11:40:46;;;;;;;3.60;3.30;;;17.00;95.20;;;;;;5080253;28;20233;-77
2024/02/04 11:43:15;;;;;;;3.70;2.70;;;17.20;95.50;;;;;;5075173;28;20222;-76
2024/02/04 11:45:43;;;;;;;2.97;2.78;;;17.40;95.00;;;;;;5073854;28;20947;-77
2024/02/04 11:48:11;;;;;;;2.97;2.67;;;17.50;94.80;;;;;;5075216;28;20202;-76
2024/02/04 11:50:40;;;;;;;3.17;2.88;;;17.40;94.30;;;;;;5074376;28;20275;-76
2024/02/04 11:53:07;;;;;;;2.80;2.60;;;17.10;94.30;;;;;;5079573;28;20309;-75
2024/02/04 11:55:35;;;;;;;2.92;2.70;;;16.90;95.00;;;;;;5082523;28;20275;-75
2024/02/04 11:58:02;;;;;;;3.10;2.80;;;17.00;94.60;;;;;;5077045;28;20203;-76
2024/02/04 12:00:29;;;;;;;2.97;2.67;;;17.30;94.70;;;;;;5076022;28;20241;-75
2024/02/04 12:03:03;;;;;;;2.90;2.70;;;17.60;94.20;;;;;;5077054;28;20206;-76
2024/02/04 12:05:31;;;;;;;2.92;2.65;;;17.60;93.80;;;;;;5081927;28;20209;-75
2024/02/04 12:08:00;;;;;;;3.05;2.75;;;17.60;93.70;;;;;;5078110;28;20226;-76
2024/02/04 12:10:29;;;;;;;2.95;2.75;;;17.70;93.40;;;;;;5076353;28;21036;-76
2024/02/04 12:12:57;;;;;;;3.10;2.80;;;17.70;93.10;;;;;;5082817;28;20978;-77
2024/02/04 12:15:24;;;;;;;2.95;2.65;;;17.60;92.80;;;;;;5079669;28;20723;-76
2024/02/04 12:17:51;;;;;;;3.20;2.90;;;17.60;93.30;;;;;;5079717;28;20318;-76
2024/02/04 12:20:18;;;;;;;3.15;2.85;;;17.60;93.30;;;;;;5079021;28;20283;-77
2024/02/04 12:22:45;;;;;;;2.72;2.45;;;17.70;93.20;;;;;;5082712;28;20241;-75
2024/02/04 12:25:13;;;;;;;2.67;2.47;;;17.80;92.30;;;;;;5078675;28;20253;-77
2024/02/04 12:27:40;;;;;;;2.40;2.20;;;17.70;91.80;;;;;;5079689;28;20299;-76
2024/02/04 12:30:10;;;;;;;3.60;2.47;;;17.80;92.00;;;;;;5078138;28;20283;-76
2024/02/04 12:32:37;;;;;;;2.25;2.05;;;17.60;91.70;;;;;;5083509;28;20236;-77
2024/02/04 12:35:06;;;;;;;2.63;2.42;;;17.50;92.10;;;;;;5081945;28;20221;-76
2024/02/04 12:37:34;;;;;;;3.42;2.63;;;17.50;91.80;;;;;;5080508;28;20201;-77
2024/02/04 12:40:02;;;;;;;2.65;2.33;;;17.50;91.90;;;;;;5080608;28;20253;-76
2024/02/04 12:42:31;;;;;;;2.60;2.40;;;17.60;91.90;;;;;;5082846;28;20198;-76
2024/02/04 12:44:59;;;;;;;2.60;2.40;;;17.60;91.60;;;;;;5081907;28;20665;-76
2024/02/04 12:47:28;;;;;;;2.40;2.20;;;17.70;90.90;;;;;;5080278;28;20204;-76
2024/02/04 12:50:00;;;;;;;2.53;2.15;;;17.70;91.70;;;;;;5078573;28;20313;-76
2024/02/04 12:52:27;;;;;;;2.65;2.33;;;17.90;91.80;;;;;;5078597;28;20292;-76
2024/02/04 12:54:54;;;;;;;2.95;2.60;;;18.10;91.50;;;;;;5076843;28;20214;-74
2024/02/04 12:57:25;;;;;;;2.40;2.20;;;18.20;90.70;;;;;;5081718;28;20204;-78